createdAt,value
2023-05-23T00:02:17.788Z,12.25
2023-05-23T00:04:44.574Z,12.14
2023-05-23T00:07:11.384Z,12.17
2023-05-23T00:09:38.034Z,12.28
2023-05-23T00:12:05.108Z,11.86
2023-05-23T00:14:33.934Z,12.32
2023-05-23T00:17:01.779Z,12.29
2023-05-23T00:19:28.741Z,11.89
2023-05-23T00:21:58.646Z,12.13
2023-05-23T00:24:25.456Z,12.16
2023-05-23T00:26:52.133Z,11.95
2023-05-23T00:29:19.691Z,12.19
2023-05-23T00:31:47.034Z,12.03
2023-05-23T00:34:15.181Z,12.11
2023-05-23T00:36:43.674Z,12.15
2023-05-23T00:39:19.031Z,12.09
2023-05-23T00:41:48.627Z,11.98
2023-05-23T00:44:17.208Z,11.99
2023-05-23T00:46:47.667Z,11.99
2023-05-23T00:49:14.572Z,11.79
2023-05-23T00:51:43.225Z,12.03
2023-05-23T00:54:10.133Z,11.79
2023-05-23T00:56:37.116Z,11.64
2023-05-23T00:59:03.837Z,11.52
2023-05-23T01:01:30.879Z,11.69
2023-05-23T01:03:58.529Z,11.57
2023-05-23T01:06:25.229Z,11.51
2023-05-23T01:11:47.248Z,11.54
2023-05-23T01:14:22.062Z,11.47
2023-05-23T01:17:01.700Z,11.51
2023-05-23T01:19:49.073Z,11.53
2023-05-23T01:22:42.064Z,11.58
2023-05-23T01:25:43.668Z,11.64
2023-05-23T01:28:16.725Z,10.95
2023-05-23T01:30:45.872Z,11.66
2023-05-23T01:33:16.442Z,11.50
2023-05-23T01:35:43.867Z,11.51
2023-05-23T01:38:10.586Z,11.48
2023-05-23T01:40:38.956Z,11.62
2023-05-23T01:43:05.833Z,11.61
2023-05-23T01:45:32.652Z,11.30
2023-05-23T01:47:59.962Z,11.48
2023-05-23T01:50:27.118Z,11.56
2023-05-23T01:52:54.933Z,11.56
2023-05-23T01:55:24.326Z,11.67
2023-05-23T01:57:51.992Z,11.69
2023-05-23T02:00:18.863Z,11.58
2023-05-23T02:02:46.371Z,11.08
2023-05-23T02:05:13.234Z,11.30
2023-05-23T02:07:39.966Z,11.63
2023-05-23T02:10:09.149Z,11.69
2023-05-23T02:12:35.802Z,11.55
2023-05-23T02:15:02.507Z,11.91
2023-05-23T02:17:29.265Z,11.56
2023-05-23T02:19:56.879Z,11.50
2023-05-23T02:22:25.186Z,11.92
2023-05-23T02:24:52.329Z,11.90
2023-05-23T02:27:19.589Z,11.95
2023-05-23T02:29:46.178Z,11.89
2023-05-23T02:32:12.832Z,11.71
2023-05-23T02:34:40.433Z,11.81
2023-05-23T02:37:07.610Z,11.27
2023-05-23T02:39:36.717Z,11.82
2023-05-23T02:42:04.864Z,11.72
2023-05-23T02:44:31.909Z,11.62
2023-05-23T02:46:58.515Z,11.70
2023-05-23T02:49:25.736Z,11.77
2023-05-23T02:51:52.387Z,11.70
2023-05-23T02:54:19.005Z,11.69
2023-05-23T02:56:46.600Z,11.37
2023-05-23T02:59:13.854Z,10.95
2023-05-23T03:01:40.649Z,11.71
2023-05-23T03:04:07.361Z,11.31
2023-05-23T03:06:34.402Z,11.59
2023-05-23T03:09:01.772Z,11.75
2023-05-23T03:11:29.993Z,11.50
2023-05-23T03:13:56.704Z,11.93
2023-05-23T03:16:26.209Z,11.70
2023-05-23T03:18:52.929Z,12.06
2023-05-23T03:21:19.621Z,12.13
2023-05-23T03:23:46.242Z,12.26
2023-05-23T03:26:12.941Z,12.08
2023-05-23T03:28:39.526Z,11.77
2023-05-23T03:31:06.278Z,12.08
2023-05-23T03:33:33.177Z,12.34
2023-05-23T03:35:59.843Z,12.51
2023-05-23T03:38:27.713Z,12.54
2023-05-23T03:40:54.301Z,12.26
2023-05-23T03:43:20.963Z,12.79
2023-05-23T03:45:47.612Z,12.95
2023-05-23T03:48:14.239Z,13.10
2023-05-23T03:50:40.815Z,12.58
2023-05-23T03:53:07.667Z,12.97
2023-05-23T03:55:34.381Z,12.95
2023-05-23T03:58:01.003Z,13.49
2023-05-23T04:00:27.750Z,13.32
2023-05-23T04:02:54.467Z,13.35
2023-05-23T04:05:21.613Z,13.87
2023-05-23T04:07:50.355Z,14.14
2023-05-23T04:10:17.162Z,14.27
2023-05-23T04:12:43.911Z,13.96
2023-05-23T04:15:11.414Z,14.10
2023-05-23T04:17:38.921Z,14.48
2023-05-23T04:20:12.977Z,14.58
2023-05-23T04:22:39.815Z,14.76
2023-05-23T04:25:06.913Z,14.79
2023-05-23T04:27:34.672Z,14.99
2023-05-23T04:30:01.734Z,15.23
2023-05-23T04:32:28.582Z,15.36
2023-05-23T04:34:56.911Z,15.65
2023-05-23T04:37:26.374Z,15.79
2023-05-23T04:39:53.708Z,15.99
2023-05-23T04:42:24.650Z,15.71
2023-05-23T04:44:52.811Z,16.34
2023-05-23T04:47:19.587Z,16.60
2023-05-23T04:49:46.374Z,16.46
2023-05-23T04:52:13.493Z,16.35
2023-05-23T04:54:44.736Z,16.92
2023-05-23T04:57:12.503Z,17.16
2023-05-23T04:59:39.524Z,16.94
2023-05-23T05:02:06.625Z,17.33
2023-05-23T05:04:33.311Z,17.68
2023-05-23T05:06:59.952Z,18.00
2023-05-23T05:09:26.742Z,18.18
2023-05-23T05:11:53.463Z,18.39
2023-05-23T05:14:20.100Z,18.54
2023-05-23T05:16:47.939Z,18.37
2023-05-23T05:19:14.684Z,18.24
2023-05-23T05:21:41.346Z,18.88
2023-05-23T05:24:09.712Z,18.49
2023-05-23T05:26:36.859Z,18.85
2023-05-23T05:29:04.188Z,18.93
2023-05-23T05:31:31.087Z,18.83
2023-05-23T05:33:57.757Z,18.98
2023-05-23T05:36:24.398Z,19.28
2023-05-23T05:38:51.327Z,19.14
2023-05-23T05:41:17.976Z,19.18
2023-05-23T05:43:44.636Z,19.02
2023-05-23T05:46:12.115Z,19.06
2023-05-23T05:48:38.822Z,19.17
2023-05-23T05:51:05.511Z,19.58
2023-05-23T05:53:32.186Z,19.78
2023-05-23T05:55:58.929Z,19.58
2023-05-23T05:58:25.606Z,19.50
2023-05-23T06:00:53.631Z,20.10
2023-05-23T06:03:20.351Z,20.15
2023-05-23T06:05:46.992Z,20.08
2023-05-23T06:08:13.647Z,20.04
2023-05-23T06:10:40.548Z,20.56
2023-05-23T06:13:07.375Z,20.60
2023-05-23T06:15:33.952Z,20.60
2023-05-23T06:18:00.610Z,19.85
2023-05-23T06:20:27.440Z,20.47
2023-05-23T06:22:54.028Z,20.36
2023-05-23T06:25:20.924Z,20.56
2023-05-23T06:27:47.597Z,20.87
2023-05-23T06:30:14.875Z,20.59
2023-05-23T06:32:41.538Z,20.69
2023-05-23T06:35:08.695Z,20.69
2023-05-23T06:37:35.354Z,20.99
2023-05-23T06:40:02.073Z,20.75
2023-05-23T06:42:29.462Z,21.14
2023-05-23T06:44:56.536Z,20.92
2023-05-23T06:47:23.487Z,21.25
2023-05-23T06:49:50.197Z,20.75
2023-05-23T06:52:16.919Z,21.82
2023-05-23T06:54:43.722Z,21.77
2023-05-23T06:57:10.346Z,20.94
2023-05-23T06:59:37.088Z,20.84
2023-05-23T07:02:03.789Z,20.82
2023-05-23T07:04:30.634Z,20.75
2023-05-23T07:06:57.292Z,20.42
2023-05-23T07:09:23.905Z,20.38
2023-05-23T07:11:50.547Z,20.40
2023-05-23T07:14:17.213Z,20.23
2023-05-23T07:16:43.941Z,20.92
2023-05-23T07:19:10.744Z,20.98
2023-05-23T07:21:37.455Z,21.14
2023-05-23T07:24:04.092Z,20.78
2023-05-23T07:26:31.024Z,20.44
2023-05-23T07:28:58.268Z,21.06
2023-05-23T07:31:24.964Z,21.19
2023-05-23T07:33:55.823Z,21.74
2023-05-23T07:36:23.667Z,22.27
2023-05-23T07:38:50.343Z,21.62
2023-05-23T07:41:17.038Z,21.65
2023-05-23T07:43:43.665Z,21.11
2023-05-23T07:46:10.339Z,22.28
2023-05-23T07:48:37.157Z,22.31
2023-05-23T07:51:04.089Z,21.84
2023-05-23T07:53:30.738Z,22.48
2023-05-23T07:55:57.357Z,22.06
2023-05-23T07:58:23.983Z,21.70
2023-05-23T08:00:52.707Z,21.54
2023-05-23T08:03:19.831Z,22.02
2023-05-23T08:05:47.279Z,21.67
2023-05-23T08:08:13.973Z,21.97
2023-05-23T08:10:41.021Z,21.84
2023-05-23T08:13:10.168Z,21.23
2023-05-23T08:15:36.937Z,22.30
2023-05-23T08:18:05.115Z,22.24
2023-05-23T08:20:32.310Z,20.27
2023-05-23T08:23:02.863Z,22.97
2023-05-23T08:25:33.265Z,22.43
2023-05-23T08:28:01.272Z,22.56
2023-05-23T08:30:29.029Z,22.61
2023-05-23T08:32:56.784Z,22.70
2023-05-23T08:35:23.710Z,22.42
2023-05-23T08:37:50.950Z,22.71
2023-05-23T08:40:23.110Z,23.59
2023-05-23T08:42:51.038Z,22.89
2023-05-23T08:45:18.367Z,22.52
2023-05-23T08:47:46.424Z,22.21
2023-05-23T08:50:16.187Z,22.74
2023-05-23T08:52:57.712Z,23.79
2023-05-23T08:55:27.351Z,23.32
2023-05-23T08:57:54.941Z,23.55
2023-05-23T09:00:22.522Z,22.82
2023-05-23T09:02:49.577Z,23.58
2023-05-23T09:05:16.997Z,23.76
2023-05-23T09:07:47.970Z,23.38
2023-05-23T09:10:20.094Z,23.23
2023-05-23T09:12:47.389Z,22.95
2023-05-23T09:15:14.872Z,23.42
2023-05-23T09:17:41.759Z,23.63
2023-05-23T09:20:16.945Z,23.10
2023-05-23T09:22:48.266Z,22.97
2023-05-23T09:25:15.584Z,22.55
2023-05-23T09:27:44.978Z,22.86
2023-05-23T09:30:14.184Z,22.61
2023-05-23T09:32:42.216Z,22.87
2023-05-23T09:35:13.873Z,23.35
2023-05-23T09:37:46.955Z,23.28
2023-05-23T09:40:14.896Z,23.09
2023-05-23T09:42:44.292Z,23.16
2023-05-23T09:45:14.920Z,23.35
2023-05-23T09:47:51.481Z,23.42
2023-05-23T09:50:18.554Z,23.23
2023-05-23T09:52:45.251Z,22.73
2023-05-23T09:55:12.092Z,22.74
2023-05-23T09:57:42.637Z,23.02
2023-05-23T10:00:14.030Z,23.62
2023-05-23T10:03:14.897Z,24.29
2023-05-23T10:05:47.630Z,24.38
2023-05-23T10:08:27.364Z,24.48
2023-05-23T10:10:57.111Z,24.80
2023-05-23T10:13:27.990Z,24.03
2023-05-23T10:16:03.046Z,23.24
2023-05-23T10:18:34.692Z,23.32
2023-05-23T10:21:12.510Z,23.17
2023-05-23T10:23:39.536Z,23.50
2023-05-23T10:26:07.101Z,23.40
2023-05-23T10:28:33.914Z,23.21
2023-05-23T10:31:00.633Z,23.83
2023-05-23T10:33:36.657Z,22.24
2023-05-23T10:36:19.569Z,23.40
2023-05-23T10:38:52.116Z,23.71
2023-05-23T10:41:24.825Z,23.66
2023-05-23T10:43:57.505Z,23.06
2023-05-23T10:46:24.309Z,23.35
2023-05-23T10:48:57.315Z,22.26
2023-05-23T10:51:24.996Z,23.24
2023-05-23T10:53:54.747Z,22.88
2023-05-23T10:56:23.921Z,23.49
2023-05-23T10:58:55.085Z,23.37
2023-05-23T11:01:22.444Z,23.57
2023-05-23T11:03:54.583Z,24.38
2023-05-23T11:06:32.850Z,24.93
2023-05-23T11:09:09.823Z,25.35
2023-05-23T11:12:06.076Z,23.88
2023-05-23T11:14:33.830Z,24.85
2023-05-23T11:17:33.305Z,24.53
2023-05-23T11:20:06.044Z,24.40
2023-05-23T11:22:34.447Z,23.52
2023-05-23T11:25:06.307Z,24.21
2023-05-23T11:27:35.168Z,24.60
2023-05-23T11:30:16.400Z,23.81
2023-05-23T11:32:51.094Z,23.52
2023-05-23T11:35:18.018Z,23.77
2023-05-23T11:37:44.765Z,24.04
2023-05-23T11:40:32.341Z,21.79
2023-05-23T11:43:00.193Z,24.03
2023-05-23T11:45:28.346Z,23.87
2023-05-23T11:47:55.307Z,23.13
2023-05-23T11:50:22.312Z,23.21
2023-05-23T11:52:52.025Z,24.22
2023-05-23T11:55:22.706Z,24.08
2023-05-23T11:57:51.788Z,24.84
2023-05-23T12:00:19.660Z,25.31
2023-05-23T12:02:49.018Z,24.75
2023-05-23T12:05:16.101Z,22.39
2023-05-23T12:07:47.913Z,23.76
2023-05-23T12:10:16.403Z,23.71
2023-05-23T12:12:43.925Z,24.35
2023-05-23T12:15:12.296Z,24.66
2023-05-23T12:17:40.235Z,24.74
2023-05-23T12:20:07.886Z,24.88
2023-05-23T12:22:34.984Z,24.86
2023-05-23T12:25:02.442Z,24.58
2023-05-23T12:27:30.361Z,24.47
2023-05-23T12:30:09.466Z,24.10
2023-05-23T12:32:47.432Z,24.12
2023-05-23T12:35:16.066Z,23.15
2023-05-23T12:37:46.058Z,24.91
2023-05-23T12:40:18.413Z,26.84
2023-05-23T12:42:57.620Z,26.58
2023-05-23T12:45:34.194Z,26.80
2023-05-23T12:48:02.331Z,27.47
2023-05-23T12:50:29.409Z,27.90
2023-05-23T12:52:56.083Z,28.50
2023-05-23T12:55:22.982Z,29.84
2023-05-23T12:57:49.583Z,29.85
2023-05-23T13:00:16.654Z,29.35
2023-05-23T13:02:43.386Z,28.81
2023-05-23T13:05:10.204Z,27.67
2023-05-23T13:07:37.941Z,26.80
2023-05-23T13:10:05.125Z,26.68
2023-05-23T13:12:33.009Z,28.55
2023-05-23T13:14:59.728Z,28.89
2023-05-23T13:17:26.414Z,27.95
2023-05-23T13:19:53.037Z,26.70
2023-05-23T13:22:19.680Z,26.10
2023-05-23T13:24:46.499Z,26.31
2023-05-23T13:27:13.210Z,26.64
2023-05-23T13:29:40.083Z,26.20
2023-05-23T13:32:06.977Z,25.71
2023-05-23T13:34:37.305Z,25.70
2023-05-23T13:37:04.903Z,24.96
2023-05-23T13:39:31.641Z,24.78
2023-05-23T13:41:58.298Z,25.37
2023-05-23T13:44:25.040Z,25.02
2023-05-23T13:46:51.841Z,25.22
2023-05-23T13:49:18.768Z,25.08
2023-05-23T13:51:45.514Z,25.19
2023-05-23T13:54:13.430Z,25.05
2023-05-23T13:56:40.454Z,25.24
2023-05-23T13:59:07.222Z,24.76
2023-05-23T14:01:33.934Z,24.97
2023-05-23T14:04:01.081Z,25.09
2023-05-23T14:06:27.682Z,23.32
2023-05-23T14:08:54.303Z,24.79
2023-05-23T14:11:21.008Z,24.71
2023-05-23T14:13:47.611Z,25.73
2023-05-23T14:16:14.302Z,27.22
2023-05-23T14:18:41.029Z,27.58
2023-05-23T14:21:07.652Z,27.52
2023-05-23T14:23:34.270Z,27.47
2023-05-23T14:26:01.101Z,28.17
2023-05-23T14:28:27.760Z,28.83
2023-05-23T14:30:55.633Z,28.10
2023-05-23T14:33:22.520Z,28.95
2023-05-23T14:35:49.396Z,27.79
2023-05-23T14:38:16.314Z,26.33
2023-05-23T14:40:44.092Z,25.71
2023-05-23T14:43:11.693Z,25.11
2023-05-23T14:45:38.684Z,24.11
2023-05-23T14:48:06.259Z,24.48
2023-05-23T14:50:33.072Z,25.97
2023-05-23T14:52:59.883Z,25.08
2023-05-23T14:55:26.619Z,25.69
2023-05-23T14:57:53.211Z,25.99
2023-05-23T15:00:20.062Z,26.21
2023-05-23T15:02:46.834Z,25.26
2023-05-23T15:05:15.332Z,24.97
2023-05-23T15:07:41.996Z,24.40
2023-05-23T15:10:08.652Z,24.40
2023-05-23T15:12:35.315Z,23.78
2023-05-23T15:15:04.859Z,23.04
2023-05-23T15:17:33.956Z,23.37
2023-05-23T15:20:00.776Z,22.86
2023-05-23T15:22:36.423Z,23.02
2023-05-23T15:25:05.556Z,22.53
2023-05-23T15:27:32.331Z,22.15
2023-05-23T15:29:59.222Z,23.39
2023-05-23T15:32:26.154Z,23.69
2023-05-23T15:34:53.121Z,22.98
2023-05-23T15:37:20.080Z,22.52
2023-05-23T15:39:48.693Z,22.07
2023-05-23T15:42:15.762Z,21.81
2023-05-23T15:44:42.461Z,21.71
2023-05-23T15:47:09.124Z,21.52
2023-05-23T15:49:35.806Z,21.53
2023-05-23T15:52:02.445Z,20.45
2023-05-23T15:54:29.106Z,20.72
2023-05-23T15:56:55.707Z,20.71
2023-05-23T15:59:22.445Z,21.32
2023-05-23T16:01:49.098Z,21.67
2023-05-23T16:04:16.219Z,21.95
2023-05-23T16:06:42.877Z,22.05
2023-05-23T16:09:09.525Z,22.86
2023-05-23T16:11:36.217Z,22.74
2023-05-23T16:14:02.930Z,22.27
2023-05-23T16:16:29.687Z,21.86
2023-05-23T16:18:56.552Z,21.55
2023-05-23T16:21:23.336Z,21.58
2023-05-23T16:23:50.030Z,21.27
2023-05-23T16:26:17.279Z,21.35
2023-05-23T16:28:43.999Z,21.77
2023-05-23T16:31:17.704Z,22.34
2023-05-23T16:33:47.643Z,22.64
2023-05-23T16:36:14.288Z,23.21
2023-05-23T16:38:40.920Z,23.69
2023-05-23T16:41:07.583Z,23.71
2023-05-23T16:43:34.993Z,23.89
2023-05-23T16:46:01.688Z,23.43
2023-05-23T16:48:28.378Z,22.66
2023-05-23T16:50:55.262Z,22.67
2023-05-23T16:53:22.430Z,22.27
2023-05-23T16:55:49.146Z,22.58
2023-05-23T16:58:17.520Z,22.22
2023-05-23T17:00:45.287Z,22.56
2023-05-23T17:03:12.100Z,21.58
2023-05-23T17:05:39.384Z,21.47
2023-05-23T17:08:06.327Z,21.67
2023-05-23T17:10:33.581Z,21.11
2023-05-23T17:13:00.191Z,20.74
2023-05-23T17:15:26.944Z,21.05
2023-05-23T17:17:53.568Z,21.18
2023-05-23T17:20:24.081Z,21.09
2023-05-23T17:22:51.901Z,20.71
2023-05-23T17:25:19.042Z,20.50
2023-05-23T17:27:46.261Z,21.14
2023-05-23T17:30:18.602Z,20.87
2023-05-23T17:32:47.029Z,21.25
2023-05-23T17:35:14.238Z,21.37
2023-05-23T17:37:43.469Z,21.26
2023-05-23T17:40:11.877Z,21.36
2023-05-23T17:42:42.175Z,21.45
2023-05-23T17:45:12.114Z,21.46
2023-05-23T17:47:39.405Z,21.52
2023-05-23T17:50:07.525Z,21.51
2023-05-23T17:52:34.967Z,21.05
2023-05-23T17:55:01.854Z,21.32
2023-05-23T17:57:31.094Z,21.24
2023-05-23T17:59:58.202Z,20.72
2023-05-23T18:02:25.123Z,20.72
2023-05-23T18:04:51.790Z,20.98
2023-05-23T18:07:21.387Z,21.02
2023-05-23T18:09:48.695Z,20.99
2023-05-23T18:12:16.563Z,20.84
2023-05-23T18:14:43.726Z,20.22
2023-05-23T18:17:10.475Z,20.52
2023-05-23T18:19:37.373Z,20.47
2023-05-23T18:22:04.368Z,20.32
2023-05-23T18:24:31.054Z,20.34
2023-05-23T18:26:58.275Z,20.27
2023-05-23T18:29:25.035Z,19.91
2023-05-23T18:31:51.830Z,20.06
2023-05-23T18:34:18.724Z,19.42
2023-05-23T18:36:45.437Z,19.83
2023-05-23T18:39:12.072Z,19.78
2023-05-23T18:41:38.744Z,19.69
2023-05-23T18:44:05.465Z,19.70
2023-05-23T18:46:32.161Z,19.64
2023-05-23T18:48:58.898Z,19.05
2023-05-23T18:51:26.778Z,19.31
2023-05-23T18:53:53.473Z,19.15
2023-05-23T18:56:20.696Z,19.20
2023-05-23T18:58:48.034Z,19.16
2023-05-23T19:01:14.707Z,18.98
2023-05-23T19:03:41.620Z,19.01
2023-05-23T19:06:08.412Z,19.12
2023-05-23T19:08:35.128Z,19.00
2023-05-23T19:11:01.923Z,18.98
2023-05-23T19:13:28.629Z,18.86
2023-05-23T19:15:55.345Z,18.49
2023-05-23T19:18:22.675Z,18.68
2023-05-23T19:20:51.764Z,18.65
2023-05-23T19:23:19.150Z,18.06
2023-05-23T19:25:45.876Z,18.50
2023-05-23T19:28:15.099Z,18.57
2023-05-23T19:30:41.980Z,18.61
2023-05-23T19:33:08.908Z,18.57
2023-05-23T19:35:35.613Z,18.45
2023-05-23T19:38:02.254Z,18.38
2023-05-23T19:40:28.967Z,18.29
2023-05-23T19:42:55.743Z,18.03
2023-05-23T19:45:22.430Z,17.95
2023-05-23T19:47:49.136Z,17.92
2023-05-23T19:50:15.990Z,17.82
2023-05-23T19:52:42.643Z,17.82
2023-05-23T19:55:10.263Z,17.67
2023-05-23T19:57:37.355Z,17.66
2023-05-23T20:00:05.896Z,17.46
2023-05-23T20:02:32.568Z,17.38
2023-05-23T20:04:59.223Z,17.41
2023-05-23T20:07:25.957Z,17.36
2023-05-23T20:09:52.593Z,17.36
2023-05-23T20:12:19.262Z,17.26
2023-05-23T20:14:46.109Z,17.12
2023-05-23T20:17:12.796Z,17.11
2023-05-23T20:19:40.191Z,16.76
2023-05-23T20:22:06.897Z,17.04
2023-05-23T20:24:33.659Z,17.01
2023-05-23T20:27:00.598Z,17.13
2023-05-23T20:29:27.210Z,17.24
2023-05-23T20:31:53.880Z,17.25
2023-05-23T20:34:20.701Z,17.24
2023-05-23T20:36:47.324Z,17.23
2023-05-23T20:39:14.008Z,17.20
2023-05-23T20:41:42.209Z,16.88
2023-05-23T20:44:14.112Z,17.18
2023-05-23T20:46:40.811Z,17.12
2023-05-23T20:49:07.488Z,16.88
2023-05-23T20:51:35.503Z,16.64
2023-05-23T20:54:03.290Z,16.41
2023-05-23T20:56:31.078Z,16.34
2023-05-23T20:59:00.314Z,16.52
2023-05-23T21:01:27.723Z,15.44
2023-05-23T21:03:55.619Z,16.00
2023-05-23T21:06:22.478Z,16.51
2023-05-23T21:08:49.267Z,16.52
2023-05-23T21:11:15.929Z,16.14
2023-05-23T21:13:43.016Z,15.90
2023-05-23T21:16:12.564Z,16.43
2023-05-23T21:18:39.329Z,16.49
2023-05-23T21:21:06.125Z,16.53
2023-05-23T21:23:32.801Z,16.68
2023-05-23T21:25:59.397Z,15.90
2023-05-23T21:28:26.138Z,16.71
2023-05-23T21:30:53.324Z,16.23
2023-05-23T21:33:19.970Z,16.60
2023-05-23T21:35:46.703Z,16.60
2023-05-23T21:38:13.400Z,16.66
2023-05-23T21:40:40.261Z,16.66
2023-05-23T21:43:07.136Z,16.04
2023-05-23T21:45:33.735Z,16.48
2023-05-23T21:48:00.548Z,16.53
2023-05-23T21:50:27.371Z,16.05
2023-05-23T21:52:54.180Z,16.57
2023-05-23T21:55:21.029Z,16.34
2023-05-23T21:57:47.734Z,16.05
2023-05-23T22:00:15.396Z,15.73
2023-05-23T22:02:44.342Z,15.99
2023-05-23T22:05:11.631Z,15.98
2023-05-23T22:07:38.317Z,15.89
2023-05-23T22:10:05.532Z,15.72
2023-05-23T22:12:32.322Z,12.98
2023-05-23T22:14:58.908Z,15.55
2023-05-23T22:17:26.484Z,15.16
2023-05-23T22:19:53.541Z,15.46
2023-05-23T22:22:20.192Z,15.43
2023-05-23T22:24:46.842Z,14.71
2023-05-23T22:27:13.574Z,15.57
2023-05-23T22:29:40.181Z,15.07
2023-05-23T22:32:07.069Z,15.46
2023-05-23T22:34:33.781Z,15.42
2023-05-23T22:37:01.241Z,15.38
2023-05-23T22:39:27.992Z,15.25
2023-05-23T22:41:54.646Z,15.35
2023-05-23T22:44:21.411Z,15.30
2023-05-23T22:46:48.033Z,14.96
2023-05-23T22:49:15.483Z,15.10
2023-05-23T22:51:42.247Z,15.17
2023-05-23T22:54:08.860Z,15.05
2023-05-23T22:56:35.517Z,14.94
2023-05-23T22:59:02.202Z,14.93
2023-05-23T23:01:28.929Z,14.98
2023-05-23T23:03:55.636Z,14.81
2023-05-23T23:06:22.309Z,14.92
2023-05-23T23:08:49.916Z,14.90
2023-05-23T23:11:16.698Z,14.77
2023-05-23T23:13:43.285Z,14.70
2023-05-23T23:16:10.002Z,14.70
2023-05-23T23:18:36.703Z,14.68
2023-05-23T23:21:03.690Z,14.76
2023-05-23T23:23:30.451Z,14.84
2023-05-23T23:25:57.183Z,14.66
2023-05-23T23:28:23.817Z,14.66
2023-05-23T23:30:50.457Z,14.67
2023-05-23T23:33:17.168Z,14.61
2023-05-23T23:35:48.405Z,14.09
2023-05-23T23:38:15.856Z,14.40
2023-05-23T23:40:45.306Z,13.87
2023-05-23T23:43:12.887Z,14.33
2023-05-23T23:45:39.566Z,13.32
2023-05-23T23:48:06.362Z,13.54
2023-05-23T23:50:33.078Z,13.09
2023-05-23T23:52:59.858Z,13.30
2023-05-23T23:55:26.565Z,13.76
2023-05-23T23:57:53.277Z,13.38
